Hauptseite
METAR-TAF:

METAR-TAF

Flughäfen :

Flughafen Brünn

Brünn, Tschechien

Breite: 49-09N, Länge: 016-42E, Höhe: 241 m

Beobachtung

Neuester Wetterbericht von vor 26 Minuten, um 06:00 UTC
Wind 6 kt aus Nordwest, variierte zwischen West/Nordwest und Nord
Temperatur 19°C
Luftfeuchtigkeit 64%
Luftdruck 1019 hPa
Sichtweite 10 km oder mehr
keine Wolken unter 1500 m und keine Kumulonimbus oder Gewitterwolken

METAR: LKTB 240600Z 31006KT 290V350 CAVOK 19/12 Q1019 NOSIG

Zeit: 08:26 (06:26 UTC)

Prognose

Neuester Wetterbericht von vor 1 Stunde und 26 Minuten, um 05:00 UTC
Gültige Prognose vom 24 um 06 UTC bis 25 um 06 UTC
Wind 6 kt aus Nord/Nordwest
Sichtweite 10 km oder mehr
keine Wolken unter 1500 m und keine Kumulonimbus oder Gewitterwolken
Übergehend zu
vom 24 um 11 UTC bis 24 um 13 UTC
Wind 9 kt aus Nordost

TAF: LKTB 240500Z 2406/2506 33006KT CAVOK BECMG 2411/2413 05009KT

Wetterbeobachtungen und Prognosen von mehr als 4000 Flughäfen (METAR und TAF Bericht).

Die verfügbaren Stationen werden durch gelbe und rote Markierungen auf der Karte dargestellt.

Führen Sie die Maus auf sie, um den Namen der Station zu sehen.

Darauf klicken, um die Beobachtung von Wetterbeobachtungen und Prognosen zu sehen.

Um die Karte zu ändern : klicken Sie auf den grünen Tasten mit einem schwarzen Kreuz Zum Vergrößern, auf den grünen Button mit einem Gedankenstrich zu verkleinern, oder auf die grünen Pfeile für benachbarte Karten.


METAR-TAF: